sensor_id;sensor_type;location;lat;lon;timestamp;P1;durP1;ratioP1;P2;durP2;ratioP2
61635;SDS011;59438;45.014;39.006;2023-04-22T00:01:47;4.25;;;0.90;;
61635;SDS011;59438;45.014;39.006;2023-04-22T00:04:13;0.85;;;0.73;;
61635;SDS011;59438;45.014;39.006;2023-04-22T00:06:41;2.05;;;1.00;;
61635;SDS011;59438;45.014;39.006;2023-04-22T00:09:07;3.97;;;0.90;;
61635;SDS011;59438;45.014;39.006;2023-04-22T00:11:34;6.72;;;2.33;;
61635;SDS011;59438;45.014;39.006;2023-04-22T00:14:00;6.20;;;1.00;;
61635;SDS011;59438;45.014;39.006;2023-04-22T00:16:26;2.97;;;0.90;;
61635;SDS011;59438;45.014;39.006;2023-04-22T00:18:53;2.40;;;0.88;;
61635;SDS011;59438;45.014;39.006;2023-04-22T00:21:19;5.55;;;0.85;;
61635;SDS011;59438;45.014;39.006;2023-04-22T00:23:47;1.02;;;0.68;;
61635;SDS011;59438;45.014;39.006;2023-04-22T00:26:13;1.88;;;0.73;;
61635;SDS011;59438;45.014;39.006;2023-04-22T00:28:41;1.38;;;0.80;;
61635;SDS011;59438;45.014;39.006;2023-04-22T00:31:07;0.60;;;0.60;;
61635;SDS011;59438;45.014;39.006;2023-04-22T00:33:34;1.73;;;0.75;;
61635;SDS011;59438;45.014;39.006;2023-04-22T00:36:00;3.75;;;0.90;;
61635;SDS011;59438;45.014;39.006;2023-04-22T00:38:27;1.55;;;0.70;;
61635;SDS011;59438;45.014;39.006;2023-04-22T00:40:54;3.80;;;0.82;;
61635;SDS011;59438;45.014;39.006;2023-04-22T00:43:22;2.15;;;0.80;;
61635;SDS011;59438;45.014;39.006;2023-04-22T00:45:48;1.08;;;0.80;;
61635;SDS011;59438;45.014;39.006;2023-04-22T00:48:14;0.98;;;0.80;;
61635;SDS011;59438;45.014;39.006;2023-04-22T00:50:41;2.35;;;0.82;;
61635;SDS011;59438;45.014;39.006;2023-04-22T00:53:07;1.67;;;0.85;;
61635;SDS011;59438;45.014;39.006;2023-04-22T00:55:33;2.58;;;1.10;;
61635;SDS011;59438;45.014;39.006;2023-04-22T00:58:02;2.80;;;1.42;;
61635;SDS011;59438;45.014;39.006;2023-04-22T01:00:29;3.17;;;1.00;;
61635;SDS011;59438;45.014;39.006;2023-04-22T01:02:55;1.52;;;0.85;;
61635;SDS011;59438;45.014;39.006;2023-04-22T01:05:22;3.63;;;0.88;;
61635;SDS011;59438;45.014;39.006;2023-04-22T01:07:49;4.25;;;1.00;;
61635;SDS011;59438;45.014;39.006;2023-04-22T01:10:15;2.83;;;1.50;;
61635;SDS011;59438;45.014;39.006;2023-04-22T01:12:42;3.35;;;1.30;;
61635;SDS011;59438;45.014;39.006;2023-04-22T01:15:10;3.00;;;1.00;;
61635;SDS011;59438;45.014;39.006;2023-04-22T01:17:37;2.47;;;1.00;;
61635;SDS011;59438;45.014;39.006;2023-04-22T01:20:03;2.33;;;0.90;;
61635;SDS011;59438;45.014;39.006;2023-04-22T01:22:31;1.80;;;1.00;;
61635;SDS011;59438;45.014;39.006;2023-04-22T01:25:07;2.88;;;0.95;;
61635;SDS011;59438;45.014;39.006;2023-04-22T01:27:33;1.13;;;0.88;;
61635;SDS011;59438;45.014;39.006;2023-04-22T01:30:00;1.27;;;0.90;;
61635;SDS011;59438;45.014;39.006;2023-04-22T01:32:26;1.65;;;0.80;;
61635;SDS011;59438;45.014;39.006;2023-04-22T01:34:53;2.25;;;0.82;;
61635;SDS011;59438;45.014;39.006;2023-04-22T01:37:19;1.98;;;0.80;;
61635;SDS011;59438;45.014;39.006;2023-04-22T01:39:46;1.95;;;0.90;;
61635;SDS011;59438;45.014;39.006;2023-04-22T01:42:14;1.40;;;0.90;;
61635;SDS011;59438;45.014;39.006;2023-04-22T01:44:41;1.58;;;0.80;;
61635;SDS011;59438;45.014;39.006;2023-04-22T01:47:07;0.95;;;0.85;;
61635;SDS011;59438;45.014;39.006;2023-04-22T01:49:33;3.13;;;0.98;;
61635;SDS011;59438;45.014;39.006;2023-04-22T01:52:00;2.88;;;0.90;;
61635;SDS011;59438;45.014;39.006;2023-04-22T01:54:26;3.45;;;0.98;;
61635;SDS011;59438;45.014;39.006;2023-04-22T01:56:53;1.42;;;0.80;;
61635;SDS011;59438;45.014;39.006;2023-04-22T01:59:21;3.60;;;0.88;;
61635;SDS011;59438;45.014;39.006;2023-04-22T02:01:48;3.60;;;1.15;;
61635;SDS011;59438;45.014;39.006;2023-04-22T02:04:14;1.52;;;0.90;;
61635;SDS011;59438;45.014;39.006;2023-04-22T02:06:41;1.98;;;0.80;;
61635;SDS011;59438;45.014;39.006;2023-04-22T02:09:07;2.00;;;0.80;;
61635;SDS011;59438;45.014;39.006;2023-04-22T02:11:33;1.13;;;0.90;;
61635;SDS011;59438;45.014;39.006;2023-04-22T02:14:00;1.33;;;0.88;;
61635;SDS011;59438;45.014;39.006;2023-04-22T02:16:27;1.95;;;0.95;;
61635;SDS011;59438;45.014;39.006;2023-04-22T02:18:54;1.55;;;1.00;;
61635;SDS011;59438;45.014;39.006;2023-04-22T02:21:20;1.13;;;0.90;;
61635;SDS011;59438;45.014;39.006;2023-04-22T02:23:46;2.42;;;1.13;;
61635;SDS011;59438;45.014;39.006;2023-04-22T02:26:13;1.80;;;0.98;;
61635;SDS011;59438;45.014;39.006;2023-04-22T02:28:39;3.75;;;1.10;;
61635;SDS011;59438;45.014;39.006;2023-04-22T02:31:05;4.15;;;1.02;;
61635;SDS011;59438;45.014;39.006;2023-04-22T02:33:33;1.20;;;1.00;;
61635;SDS011;59438;45.014;39.006;2023-04-22T02:35:59;1.30;;;0.90;;
61635;SDS011;59438;45.014;39.006;2023-04-22T02:38:26;2.03;;;0.90;;
61635;SDS011;59438;45.014;39.006;2023-04-22T02:40:52;1.67;;;0.88;;
61635;SDS011;59438;45.014;39.006;2023-04-22T02:43:20;2.05;;;0.90;;
61635;SDS011;59438;45.014;39.006;2023-04-22T02:45:46;3.78;;;1.00;;
61635;SDS011;59438;45.014;39.006;2023-04-22T02:48:13;1.42;;;0.90;;
61635;SDS011;59438;45.014;39.006;2023-04-22T02:50:40;4.15;;;0.98;;
61635;SDS011;59438;45.014;39.006;2023-04-22T02:53:07;3.42;;;1.15;;
61635;SDS011;59438;45.014;39.006;2023-04-22T02:55:33;4.80;;;1.00;;
61635;SDS011;59438;45.014;39.006;2023-04-22T02:58:00;1.27;;;0.98;;
61635;SDS011;59438;45.014;39.006;2023-04-22T03:00:26;3.42;;;1.20;;
61635;SDS011;59438;45.014;39.006;2023-04-22T03:02:52;2.35;;;1.05;;
61635;SDS011;59438;45.014;39.006;2023-04-22T03:05:19;4.38;;;1.20;;
61635;SDS011;59438;45.014;39.006;2023-04-22T03:07:46;3.97;;;1.30;;
61635;SDS011;59438;45.014;39.006;2023-04-22T03:10:13;3.05;;;1.73;;
61635;SDS011;59438;45.014;39.006;2023-04-22T03:12:40;6.60;;;2.40;;
61635;SDS011;59438;45.014;39.006;2023-04-22T03:15:07;4.30;;;1.98;;
61635;SDS011;59438;45.014;39.006;2023-04-22T03:17:33;7.43;;;1.48;;
61635;SDS011;59438;45.014;39.006;2023-04-22T03:20:00;3.92;;;1.20;;
61635;SDS011;59438;45.014;39.006;2023-04-22T03:22:26;3.92;;;1.33;;
61635;SDS011;59438;45.014;39.006;2023-04-22T03:24:54;2.33;;;1.35;;
61635;SDS011;59438;45.014;39.006;2023-04-22T03:27:20;3.90;;;2.80;;
61635;SDS011;59438;45.014;39.006;2023-04-22T03:29:47;6.18;;;3.00;;
61635;SDS011;59438;45.014;39.006;2023-04-22T03:32:13;4.30;;;1.80;;
61635;SDS011;59438;45.014;39.006;2023-04-22T03:34:39;3.75;;;1.95;;
61635;SDS011;59438;45.014;39.006;2023-04-22T03:37:06;3.83;;;1.20;;
61635;SDS011;59438;45.014;39.006;2023-04-22T03:39:32;3.55;;;1.35;;
61635;SDS011;59438;45.014;39.006;2023-04-22T03:42:00;1.92;;;1.15;;
61635;SDS011;59438;45.014;39.006;2023-04-22T03:44:26;1.92;;;1.25;;
61635;SDS011;59438;45.014;39.006;2023-04-22T03:46:52;3.78;;;1.23;;
61635;SDS011;59438;45.014;39.006;2023-04-22T03:49:19;1.13;;;1.02;;
61635;SDS011;59438;45.014;39.006;2023-04-22T03:51:45;3.72;;;1.20;;
61635;SDS011;59438;45.014;39.006;2023-04-22T03:54:11;2.65;;;1.23;;
61635;SDS011;59438;45.014;39.006;2023-04-22T03:56:38;2.92;;;1.38;;
61635;SDS011;59438;45.014;39.006;2023-04-22T03:59:05;3.67;;;1.25;;
61635;SDS011;59438;45.014;39.006;2023-04-22T04:01:32;2.65;;;1.40;;
61635;SDS011;59438;45.014;39.006;2023-04-22T04:03:58;3.83;;;1.30;;
61635;SDS011;59438;45.014;39.006;2023-04-22T04:06:24;3.25;;;1.30;;
61635;SDS011;59438;45.014;39.006;2023-04-22T04:08:51;1.92;;;1.17;;
61635;SDS011;59438;45.014;39.006;2023-04-22T04:11:17;2.45;;;1.25;;
61635;SDS011;59438;45.014;39.006;2023-04-22T04:13:43;3.72;;;1.20;;
61635;SDS011;59438;45.014;39.006;2023-04-22T04:16:11;3.83;;;1.30;;
61635;SDS011;59438;45.014;39.006;2023-04-22T04:18:37;2.28;;;1.58;;
61635;SDS011;59438;45.014;39.006;2023-04-22T04:21:04;5.82;;;1.75;;
61635;SDS011;59438;45.014;39.006;2023-04-22T04:23:31;4.68;;;2.22;;
61635;SDS011;59438;45.014;39.006;2023-04-22T04:25:57;7.47;;;3.97;;
61635;SDS011;59438;45.014;39.006;2023-04-22T04:28:23;4.95;;;2.28;;
61635;SDS011;59438;45.014;39.006;2023-04-22T04:30:50;7.57;;;4.32;;
61635;SDS011;59438;45.014;39.006;2023-04-22T04:33:18;9.05;;;5.10;;
61635;SDS011;59438;45.014;39.006;2023-04-22T04:35:44;9.02;;;4.68;;
61635;SDS011;59438;45.014;39.006;2023-04-22T04:38:10;7.18;;;2.60;;
61635;SDS011;59438;45.014;39.006;2023-04-22T04:40:37;3.28;;;1.90;;
61635;SDS011;59438;45.014;39.006;2023-04-22T04:43:03;1.48;;;1.08;;
61635;SDS011;59438;45.014;39.006;2023-04-22T04:45:29;3.13;;;1.20;;
61635;SDS011;59438;45.014;39.006;2023-04-22T04:47:56;2.08;;;0.93;;
61635;SDS011;59438;45.014;39.006;2023-04-22T04:50:23;3.83;;;1.58;;
61635;SDS011;59438;45.014;39.006;2023-04-22T04:52:50;2.58;;;1.10;;
61635;SDS011;59438;45.014;39.006;2023-04-22T04:55:16;1.65;;;1.10;;
61635;SDS011;59438;45.014;39.006;2023-04-22T04:57:43;2.67;;;1.08;;
61635;SDS011;59438;45.014;39.006;2023-04-22T05:00:10;3.20;;;1.10;;
61635;SDS011;59438;45.014;39.006;2023-04-22T05:02:37;1.20;;;0.90;;
61635;SDS011;59438;45.014;39.006;2023-04-22T05:05:04;2.75;;;1.27;;
61635;SDS011;59438;45.014;39.006;2023-04-22T05:07:32;6.15;;;1.40;;
61635;SDS011;59438;45.014;39.006;2023-04-22T05:09:59;2.08;;;1.27;;
61635;SDS011;59438;45.014;39.006;2023-04-22T05:12:25;2.20;;;1.10;;
61635;SDS011;59438;45.014;39.006;2023-04-22T05:14:51;2.78;;;1.17;;
61635;SDS011;59438;45.014;39.006;2023-04-22T05:17:18;2.35;;;1.58;;
61635;SDS011;59438;45.014;39.006;2023-04-22T05:19:45;4.72;;;1.60;;
61635;SDS011;59438;45.014;39.006;2023-04-22T05:22:11;5.95;;;1.40;;
61635;SDS011;59438;45.014;39.006;2023-04-22T05:24:39;3.92;;;1.35;;
61635;SDS011;59438;45.014;39.006;2023-04-22T05:27:05;3.38;;;1.20;;
61635;SDS011;59438;45.014;39.006;2023-04-22T05:29:32;1.67;;;0.98;;
61635;SDS011;59438;45.014;39.006;2023-04-22T05:31:58;3.83;;;1.30;;
61635;SDS011;59438;45.014;39.006;2023-04-22T05:34:24;3.42;;;1.05;;
61635;SDS011;59438;45.014;39.006;2023-04-22T05:36:51;2.97;;;1.35;;
61635;SDS011;59438;45.014;39.006;2023-04-22T05:39:17;2.20;;;1.27;;
61635;SDS011;59438;45.014;39.006;2023-04-22T05:41:46;5.70;;;1.50;;
61635;SDS011;59438;45.014;39.006;2023-04-22T05:44:14;9.60;;;3.90;;
61635;SDS011;59438;45.014;39.006;2023-04-22T05:46:40;5.47;;;2.15;;
61635;SDS011;59438;45.014;39.006;2023-04-22T05:49:07;4.35;;;1.80;;
61635;SDS011;59438;45.014;39.006;2023-04-22T05:51:33;4.28;;;1.40;;
61635;SDS011;59438;45.014;39.006;2023-04-22T05:53:59;1.70;;;1.00;;
61635;SDS011;59438;45.014;39.006;2023-04-22T05:56:26;2.58;;;1.25;;
61635;SDS011;59438;45.014;39.006;2023-04-22T05:58:54;4.22;;;1.27;;
61635;SDS011;59438;45.014;39.006;2023-04-22T06:01:20;3.47;;;1.25;;
61635;SDS011;59438;45.014;39.006;2023-04-22T06:03:47;3.08;;;1.00;;
61635;SDS011;59438;45.014;39.006;2023-04-22T06:06:13;2.45;;;0.95;;
61635;SDS011;59438;45.014;39.006;2023-04-22T06:08:39;3.08;;;1.13;;
61635;SDS011;59438;45.014;39.006;2023-04-22T06:11:05;3.97;;;1.00;;
61635;SDS011;59438;45.014;39.006;2023-04-22T06:13:32;4.03;;;1.00;;
61635;SDS011;59438;45.014;39.006;2023-04-22T06:16:00;3.13;;;1.00;;
61635;SDS011;59438;45.014;39.006;2023-04-22T06:18:26;4.18;;;1.50;;
61635;SDS011;59438;45.014;39.006;2023-04-22T06:20:52;7.05;;;1.10;;
61635;SDS011;59438;45.014;39.006;2023-04-22T06:23:19;5.57;;;1.00;;
61635;SDS011;59438;45.014;39.006;2023-04-22T06:25:45;3.47;;;1.02;;
61635;SDS011;59438;45.014;39.006;2023-04-22T06:28:14;5.50;;;0.82;;
61635;SDS011;59438;45.014;39.006;2023-04-22T06:30:40;3.88;;;0.90;;
61635;SDS011;59438;45.014;39.006;2023-04-22T06:33:08;3.80;;;1.05;;
61635;SDS011;59438;45.014;39.006;2023-04-22T06:35:35;7.82;;;1.10;;
61635;SDS011;59438;45.014;39.006;2023-04-22T06:38:01;3.33;;;0.90;;
61635;SDS011;59438;45.014;39.006;2023-04-22T06:40:27;4.35;;;1.05;;
61635;SDS011;59438;45.014;39.006;2023-04-22T06:42:54;5.95;;;1.45;;
61635;SDS011;59438;45.014;39.006;2023-04-22T06:45:20;3.20;;;0.80;;
61635;SDS011;59438;45.014;39.006;2023-04-22T06:47:46;5.88;;;0.80;;
61635;SDS011;59438;45.014;39.006;2023-04-22T06:50:14;7.55;;;0.90;;
61635;SDS011;59438;45.014;39.006;2023-04-22T06:52:40;9.13;;;1.00;;
61635;SDS011;59438;45.014;39.006;2023-04-22T06:55:07;3.78;;;0.80;;
61635;SDS011;59438;45.014;39.006;2023-04-22T06:57:34;1.38;;;0.70;;
61635;SDS011;59438;45.014;39.006;2023-04-22T07:00:00;5.00;;;0.95;;
61635;SDS011;59438;45.014;39.006;2023-04-22T07:02:27;7.70;;;1.10;;
61635;SDS011;59438;45.014;39.006;2023-04-22T07:04:53;2.20;;;0.77;;
61635;SDS011;59438;45.014;39.006;2023-04-22T07:07:21;3.47;;;0.80;;
61635;SDS011;59438;45.014;39.006;2023-04-22T07:09:47;8.32;;;1.23;;
61635;SDS011;59438;45.014;39.006;2023-04-22T07:12:14;8.45;;;1.05;;
61635;SDS011;59438;45.014;39.006;2023-04-22T07:14:41;1.67;;;0.90;;
61635;SDS011;59438;45.014;39.006;2023-04-22T07:17:08;6.82;;;1.05;;
61635;SDS011;59438;45.014;39.006;2023-04-22T07:19:34;4.80;;;1.27;;
61635;SDS011;59438;45.014;39.006;2023-04-22T07:22:01;7.88;;;1.10;;
61635;SDS011;59438;45.014;39.006;2023-04-22T07:24:28;2.00;;;0.90;;
61635;SDS011;59438;45.014;39.006;2023-04-22T07:26:55;30.27;;;1.85;;
61635;SDS011;59438;45.014;39.006;2023-04-22T07:29:22;2.22;;;0.80;;
61635;SDS011;59438;45.014;39.006;2023-04-22T07:31:48;1.02;;;0.60;;
61635;SDS011;59438;45.014;39.006;2023-04-22T07:34:15;1.33;;;0.55;;
61635;SDS011;59438;45.014;39.006;2023-04-22T07:36:43;1.52;;;0.80;;
61635;SDS011;59438;45.014;39.006;2023-04-22T07:39:09;2.97;;;0.90;;
61635;SDS011;59438;45.014;39.006;2023-04-22T07:41:37;4.53;;;0.80;;
61635;SDS011;59438;45.014;39.006;2023-04-22T07:44:03;3.35;;;0.93;;
61635;SDS011;59438;45.014;39.006;2023-04-22T07:46:30;3.72;;;1.20;;
61635;SDS011;59438;45.014;39.006;2023-04-22T07:48:56;3.17;;;0.73;;
61635;SDS011;59438;45.014;39.006;2023-04-22T07:51:22;1.85;;;0.70;;
61635;SDS011;59438;45.014;39.006;2023-04-22T07:53:49;2.75;;;1.30;;
61635;SDS011;59438;45.014;39.006;2023-04-22T07:56:15;2.45;;;0.90;;
61635;SDS011;59438;45.014;39.006;2023-04-22T07:58:43;2.47;;;1.00;;
61635;SDS011;59438;45.014;39.006;2023-04-22T08:01:09;3.40;;;0.60;;
61635;SDS011;59438;45.014;39.006;2023-04-22T08:03:36;2.75;;;0.80;;
61635;SDS011;59438;45.014;39.006;2023-04-22T08:06:02;3.40;;;1.00;;
61635;SDS011;59438;45.014;39.006;2023-04-22T08:08:28;6.47;;;1.00;;
61635;SDS011;59438;45.014;39.006;2023-04-22T08:10:55;2.13;;;0.80;;
61635;SDS011;59438;45.014;39.006;2023-04-22T08:13:21;4.35;;;0.88;;
61635;SDS011;59438;45.014;39.006;2023-04-22T08:15:49;2.22;;;0.70;;
61635;SDS011;59438;45.014;39.006;2023-04-22T08:18:18;3.55;;;1.15;;
61635;SDS011;59438;45.014;39.006;2023-04-22T08:20:46;3.58;;;0.98;;
61635;SDS011;59438;45.014;39.006;2023-04-22T08:23:14;3.97;;;0.95;;
61635;SDS011;59438;45.014;39.006;2023-04-22T08:25:40;3.80;;;1.55;;
61635;SDS011;59438;45.014;39.006;2023-04-22T08:28:07;2.60;;;1.17;;
61635;SDS011;59438;45.014;39.006;2023-04-22T08:30:33;2.17;;;1.02;;
61635;SDS011;59438;45.014;39.006;2023-04-22T08:33:01;2.10;;;1.00;;
61635;SDS011;59438;45.014;39.006;2023-04-22T08:35:27;2.50;;;1.10;;
61635;SDS011;59438;45.014;39.006;2023-04-22T08:37:54;4.30;;;1.20;;
61635;SDS011;59438;45.014;39.006;2023-04-22T08:40:21;2.05;;;0.98;;
61635;SDS011;59438;45.014;39.006;2023-04-22T08:42:47;2.20;;;1.25;;
61635;SDS011;59438;45.014;39.006;2023-04-22T08:45:14;8.38;;;1.30;;
61635;SDS011;59438;45.014;39.006;2023-04-22T08:47:42;3.28;;;1.08;;
61635;SDS011;59438;45.014;39.006;2023-04-22T08:50:10;3.28;;;1.85;;
61635;SDS011;59438;45.014;39.006;2023-04-22T08:52:37;5.75;;;0.70;;
61635;SDS011;59438;45.014;39.006;2023-04-22T08:55:04;2.38;;;1.00;;
61635;SDS011;59438;45.014;39.006;2023-04-22T08:57:31;2.05;;;0.93;;
61635;SDS011;59438;45.014;39.006;2023-04-22T08:59:58;10.65;;;1.33;;
61635;SDS011;59438;45.014;39.006;2023-04-22T09:02:25;1.60;;;0.90;;
61635;SDS011;59438;45.014;39.006;2023-04-22T09:04:53;3.90;;;0.70;;
61635;SDS011;59438;45.014;39.006;2023-04-22T09:07:22;1.30;;;0.95;;
61635;SDS011;59438;45.014;39.006;2023-04-22T09:09:51;2.63;;;1.02;;
61635;SDS011;59438;45.014;39.006;2023-04-22T09:12:19;1.33;;;0.90;;
61635;SDS011;59438;45.014;39.006;2023-04-22T09:14:45;2.40;;;0.90;;
61635;SDS011;59438;45.014;39.006;2023-04-22T09:17:14;1.42;;;0.90;;
61635;SDS011;59438;45.014;39.006;2023-04-22T09:19:41;1.42;;;0.80;;
61635;SDS011;59438;45.014;39.006;2023-04-22T09:22:08;3.40;;;1.00;;
61635;SDS011;59438;45.014;39.006;2023-04-22T09:24:36;1.98;;;1.30;;
61635;SDS011;59438;45.014;39.006;2023-04-22T09:27:07;5.43;;;2.00;;
61635;SDS011;59438;45.014;39.006;2023-04-22T09:29:33;4.53;;;1.02;;
61635;SDS011;59438;45.014;39.006;2023-04-22T09:32:00;8.70;;;1.50;;
61635;SDS011;59438;45.014;39.006;2023-04-22T09:34:34;6.65;;;1.60;;
61635;SDS011;59438;45.014;39.006;2023-04-22T09:37:11;3.13;;;1.17;;
61635;SDS011;59438;45.014;39.006;2023-04-22T09:39:39;13.60;;;1.45;;
61635;SDS011;59438;45.014;39.006;2023-04-22T09:42:07;4.82;;;1.00;;
61635;SDS011;59438;45.014;39.006;2023-04-22T09:44:36;2.58;;;0.90;;
61635;SDS011;59438;45.014;39.006;2023-04-22T09:47:04;3.10;;;1.00;;
61635;SDS011;59438;45.014;39.006;2023-04-22T09:49:30;2.40;;;0.90;;
61635;SDS011;59438;45.014;39.006;2023-04-22T09:52:01;2.33;;;0.90;;
61635;SDS011;59438;45.014;39.006;2023-04-22T09:54:28;4.68;;;0.88;;
61635;SDS011;59438;45.014;39.006;2023-04-22T09:56:56;3.30;;;0.82;;
61635;SDS011;59438;45.014;39.006;2023-04-22T09:59:23;3.53;;;0.70;;
61635;SDS011;59438;45.014;39.006;2023-04-22T10:01:51;3.92;;;1.00;;
61635;SDS011;59438;45.014;39.006;2023-04-22T10:04:19;3.08;;;1.00;;
61635;SDS011;59438;45.014;39.006;2023-04-22T10:06:46;6.60;;;3.33;;
61635;SDS011;59438;45.014;39.006;2023-04-22T10:09:12;6.00;;;1.80;;
61635;SDS011;59438;45.014;39.006;2023-04-22T10:11:40;3.80;;;1.40;;
61635;SDS011;59438;45.014;39.006;2023-04-22T10:16:52;2.35;;;1.20;;
61635;SDS011;59438;45.014;39.006;2023-04-22T10:19:23;3.92;;;1.10;;
61635;SDS011;59438;45.014;39.006;2023-04-22T10:21:51;3.45;;;0.93;;
61635;SDS011;59438;45.014;39.006;2023-04-22T10:24:20;5.50;;;0.90;;
61635;SDS011;59438;45.014;39.006;2023-04-22T10:26:50;3.28;;;1.08;;
61635;SDS011;59438;45.014;39.006;2023-04-22T10:29:21;1.75;;;0.90;;
61635;SDS011;59438;45.014;39.006;2023-04-22T10:31:52;4.40;;;1.00;;
61635;SDS011;59438;45.014;39.006;2023-04-22T10:34:20;1.83;;;0.90;;
61635;SDS011;59438;45.014;39.006;2023-04-22T10:36:56;3.58;;;1.30;;
61635;SDS011;59438;45.014;39.006;2023-04-22T10:39:25;2.15;;;1.13;;
61635;SDS011;59438;45.014;39.006;2023-04-22T10:41:53;2.80;;;0.90;;
61635;SDS011;59438;45.014;39.006;2023-04-22T10:44:26;2.20;;;0.90;;
61635;SDS011;59438;45.014;39.006;2023-04-22T10:46:54;2.53;;;0.90;;
61635;SDS011;59438;45.014;39.006;2023-04-22T10:49:24;2.10;;;0.85;;
61635;SDS011;59438;45.014;39.006;2023-04-22T10:51:54;1.67;;;0.90;;
61635;SDS011;59438;45.014;39.006;2023-04-22T10:57:29;2.05;;;0.82;;
61635;SDS011;59438;45.014;39.006;2023-04-22T11:02:54;3.33;;;1.30;;
61635;SDS011;59438;45.014;39.006;2023-04-22T11:05:40;2.05;;;0.82;;
61635;SDS011;59438;45.014;39.006;2023-04-22T11:08:11;1.52;;;0.80;;
61635;SDS011;59438;45.014;39.006;2023-04-22T11:10:40;4.35;;;0.80;;
61635;SDS011;59438;45.014;39.006;2023-04-22T11:13:08;0.77;;;0.65;;
61635;SDS011;59438;45.014;39.006;2023-04-22T11:15:38;2.60;;;0.90;;
61635;SDS011;59438;45.014;39.006;2023-04-22T11:18:09;4.50;;;0.90;;
61635;SDS011;59438;45.014;39.006;2023-04-22T11:20:38;1.65;;;0.80;;
61635;SDS011;59438;45.014;39.006;2023-04-22T11:23:07;2.40;;;1.05;;
61635;SDS011;59438;45.014;39.006;2023-04-22T11:25:33;3.08;;;0.77;;
61635;SDS011;59438;45.014;39.006;2023-04-22T11:28:00;2.17;;;0.80;;
61635;SDS011;59438;45.014;39.006;2023-04-22T11:30:26;2.42;;;0.95;;
61635;SDS011;59438;45.014;39.006;2023-04-22T11:32:55;4.68;;;0.90;;
61635;SDS011;59438;45.014;39.006;2023-04-22T11:35:23;1.60;;;1.00;;
61635;SDS011;59438;45.014;39.006;2023-04-22T11:37:51;9.07;;;1.00;;
61635;SDS011;59438;45.014;39.006;2023-04-22T11:40:19;1.98;;;0.60;;
61635;SDS011;59438;45.014;39.006;2023-04-22T11:42:48;4.78;;;0.70;;
61635;SDS011;59438;45.014;39.006;2023-04-22T11:45:14;1.40;;;0.80;;
61635;SDS011;59438;45.014;39.006;2023-04-22T11:47:41;3.20;;;0.80;;
61635;SDS011;59438;45.014;39.006;2023-04-22T11:50:10;3.75;;;0.80;;
61635;SDS011;59438;45.014;39.006;2023-04-22T11:52:41;2.40;;;0.93;;
61635;SDS011;59438;45.014;39.006;2023-04-22T11:55:12;1.83;;;0.70;;
61635;SDS011;59438;45.014;39.006;2023-04-22T11:57:43;5.13;;;1.00;;
61635;SDS011;59438;45.014;39.006;2023-04-22T12:00:11;14.68;;;1.13;;
61635;SDS011;59438;45.014;39.006;2023-04-22T12:02:39;3.25;;;1.70;;
61635;SDS011;59438;45.014;39.006;2023-04-22T12:05:08;4.00;;;1.10;;
61635;SDS011;59438;45.014;39.006;2023-04-22T12:07:36;2.80;;;1.27;;
61635;SDS011;59438;45.014;39.006;2023-04-22T12:10:03;6.97;;;1.40;;
61635;SDS011;59438;45.014;39.006;2023-04-22T12:12:30;6.35;;;1.70;;
61635;SDS011;59438;45.014;39.006;2023-04-22T12:14:57;5.43;;;1.15;;
61635;SDS011;59438;45.014;39.006;2023-04-22T12:17:32;2.00;;;1.10;;
61635;SDS011;59438;45.014;39.006;2023-04-22T12:19:58;2.17;;;0.90;;
61635;SDS011;59438;45.014;39.006;2023-04-22T12:22:27;3.50;;;1.23;;
61635;SDS011;59438;45.014;39.006;2023-04-22T12:24:56;2.25;;;1.10;;
61635;SDS011;59438;45.014;39.006;2023-04-22T12:27:23;3.10;;;1.38;;
61635;SDS011;59438;45.014;39.006;2023-04-22T12:29:57;3.72;;;0.90;;
61635;SDS011;59438;45.014;39.006;2023-04-22T12:32:24;1.30;;;0.93;;
61635;SDS011;59438;45.014;39.006;2023-04-22T12:34:51;2.63;;;0.90;;
61635;SDS011;59438;45.014;39.006;2023-04-22T12:37:18;2.38;;;1.33;;
61635;SDS011;59438;45.014;39.006;2023-04-22T12:39:46;9.63;;;4.63;;
61635;SDS011;59438;45.014;39.006;2023-04-22T12:42:12;6.43;;;3.22;;
61635;SDS011;59438;45.014;39.006;2023-04-22T12:44:41;5.78;;;3.30;;
61635;SDS011;59438;45.014;39.006;2023-04-22T12:47:08;2.55;;;1.50;;
61635;SDS011;59438;45.014;39.006;2023-04-22T12:49:35;6.25;;;2.25;;
61635;SDS011;59438;45.014;39.006;2023-04-22T12:52:02;5.60;;;3.22;;
61635;SDS011;59438;45.014;39.006;2023-04-22T12:54:28;6.38;;;1.25;;
61635;SDS011;59438;45.014;39.006;2023-04-22T12:56:56;4.10;;;1.00;;
61635;SDS011;59438;45.014;39.006;2023-04-22T12:59:22;3.75;;;1.50;;
61635;SDS011;59438;45.014;39.006;2023-04-22T13:01:49;3.63;;;1.20;;
61635;SDS011;59438;45.014;39.006;2023-04-22T13:04:16;2.30;;;0.82;;
61635;SDS011;59438;45.014;39.006;2023-04-22T13:06:43;2.92;;;0.90;;
61635;SDS011;59438;45.014;39.006;2023-04-22T13:09:09;3.83;;;0.93;;
61635;SDS011;59438;45.014;39.006;2023-04-22T13:11:36;1.35;;;0.73;;
61635;SDS011;59438;45.014;39.006;2023-04-22T13:14:04;2.10;;;0.80;;
61635;SDS011;59438;45.014;39.006;2023-04-22T13:16:30;3.80;;;0.82;;
61635;SDS011;59438;45.014;39.006;2023-04-22T13:18:56;1.67;;;0.90;;
61635;SDS011;59438;45.014;39.006;2023-04-22T13:21:23;1.20;;;0.70;;
61635;SDS011;59438;45.014;39.006;2023-04-22T13:23:52;5.68;;;0.90;;
61635;SDS011;59438;45.014;39.006;2023-04-22T13:26:18;5.15;;;1.02;;
61635;SDS011;59438;45.014;39.006;2023-04-22T13:28:45;1.33;;;0.63;;
61635;SDS011;59438;45.014;39.006;2023-04-22T13:31:13;2.38;;;0.70;;
61635;SDS011;59438;45.014;39.006;2023-04-22T13:33:39;2.65;;;0.80;;
61635;SDS011;59438;45.014;39.006;2023-04-22T13:36:05;0.95;;;0.80;;
61635;SDS011;59438;45.014;39.006;2023-04-22T13:38:32;0.82;;;0.70;;
61635;SDS011;59438;45.014;39.006;2023-04-22T13:40:58;2.10;;;0.70;;
61635;SDS011;59438;45.014;39.006;2023-04-22T13:43:25;1.10;;;0.70;;
61635;SDS011;59438;45.014;39.006;2023-04-22T13:45:51;3.53;;;1.25;;
61635;SDS011;59438;45.014;39.006;2023-04-22T13:48:19;1.75;;;0.90;;
61635;SDS011;59438;45.014;39.006;2023-04-22T13:50:45;1.65;;;0.77;;
61635;SDS011;59438;45.014;39.006;2023-04-22T13:53:12;2.60;;;0.63;;
61635;SDS011;59438;45.014;39.006;2023-04-22T13:55:40;4.72;;;0.70;;
61635;SDS011;59438;45.014;39.006;2023-04-22T13:58:06;1.77;;;0.77;;
61635;SDS011;59438;45.014;39.006;2023-04-22T14:00:32;1.80;;;0.57;;
61635;SDS011;59438;45.014;39.006;2023-04-22T14:02:59;11.60;;;0.93;;
61635;SDS011;59438;45.014;39.006;2023-04-22T14:05:27;4.60;;;0.70;;
61635;SDS011;59438;45.014;39.006;2023-04-22T14:07:54;1.83;;;0.63;;
61635;SDS011;59438;45.014;39.006;2023-04-22T14:10:20;2.22;;;0.88;;
61635;SDS011;59438;45.014;39.006;2023-04-22T14:12:47;1.05;;;0.63;;
61635;SDS011;59438;45.014;39.006;2023-04-22T14:15:14;1.17;;;0.50;;
61635;SDS011;59438;45.014;39.006;2023-04-22T14:17:40;0.80;;;0.50;;
61635;SDS011;59438;45.014;39.006;2023-04-22T14:20:09;1.48;;;0.73;;
61635;SDS011;59438;45.014;39.006;2023-04-22T14:22:37;0.93;;;0.70;;
61635;SDS011;59438;45.014;39.006;2023-04-22T14:25:04;3.10;;;0.88;;
61635;SDS011;59438;45.014;39.006;2023-04-22T14:27:31;1.05;;;0.80;;
61635;SDS011;59438;45.014;39.006;2023-04-22T14:29:57;3.08;;;1.00;;
61635;SDS011;59438;45.014;39.006;2023-04-22T14:32:24;2.47;;;0.93;;
61635;SDS011;59438;45.014;39.006;2023-04-22T14:34:50;2.30;;;1.10;;
61635;SDS011;59438;45.014;39.006;2023-04-22T14:37:17;2.97;;;1.00;;
61635;SDS011;59438;45.014;39.006;2023-04-22T14:39:44;2.67;;;1.00;;
61635;SDS011;59438;45.014;39.006;2023-04-22T14:42:11;2.38;;;0.90;;